Terminal Aerodrome Forecast
Issued by NWS

Home | Current Version | Previous Version | Text Only | Print | Product List | Glossary On
Versions: 1 2 3 4 5 6 7 8 9 10 11 12 13 14 15 16 17
000
FTUS41 KCAR 310500
TAFPQI
TAF
KPQI 310524Z 3106/0106 19007KT P6SM BKN250
     FM311200 19007KT P6SM VCSH BKN025
     FM311300 19007KT P6SM VCSH OVC015
     FM311400 20007KT 5SM -SHRA OVC008
      AMD LTD TO CLD VIS AND WIND=

USA.gov is the U.S. government's official web portal to all federal, state and local government web resources and services.